Погода Китхар-Рэнджна 2 недели

Белуджистан, Пакистан

25 июля-06 августа
  • 25июля
    Сегодня
    +30°
    +39°
    Ясно и безоблачно
    ВремяПогодаТемператураВлажностьДавлениеВетер, м/сВероятность осадков
    02:00Ясно и безоблачно+31°C66 %740 мм4.3 м/с2 %
    05:00Ясно и безоблачно+30°C69 %740 мм3.2 м/с2 %
    08:00Ясно и безоблачно+32°C63 %741 мм3.1 м/с2 %
    11:00Ясно и безоблачно+35°C47 %741 мм2.0 м/с2 %
    14:00Ясно и безоблачно+39°C37 %740 мм2.2 м/с2 %
    17:00Ясно и безоблачно+40°C35 %739 мм2.6 м/с2 %
    20:00Ясно и безоблачно+37°C40 %739 мм2.3 м/с2 %
    23:00Практически безоблачно+34°C53 %741 мм4.4 м/с1 %
  • 26июля
    Пятница
    +30°
    +40°
    Ясно и безоблачно
    ВремяПогодаТемператураВлажностьДавлениеВетер, м/сВероятность осадков
    02:00Небольшая облачность+32°C64 %741 мм4.1 м/с2 %
    05:00Ясно и безоблачно+30°C68 %741 мм3.4 м/с2 %
    08:00Ясно и безоблачно+32°C63 %742 мм2.7 м/с2 %
    11:00Ясно и безоблачно+36°C46 %742 мм2.7 м/с2 %
    14:00Ясно и безоблачно+38°C34 %741 мм2.4 м/с2 %
    17:00Ясно и безоблачно+39°C32 %739 мм2.1 м/с2 %
    20:00Ясно и безоблачно+36°C38 %740 мм3.2 м/с3 %
    23:00Небольшая облачность+34°C47 %742 мм3.2 м/с2 %
  • 27июля
    Суббота
    +29°
    +41°
    Ясно и безоблачно
    ВремяПогодаТемператураВлажностьДавлениеВетер, м/сВероятность осадков
    02:00Ясно и безоблачно+32°C58 %741 мм3.4 м/с2 %
    05:00Ясно и безоблачно+31°C62 %741 мм3.2 м/с2 %
    08:00Ясно и безоблачно+32°C59 %743 мм3.0 м/с2 %
    11:00Ясно и безоблачно+36°C41 %743 мм2.1 м/с2 %
    14:00Ясно и безоблачно+40°C30 %742 мм2.4 м/с2 %
    17:00Практически безоблачно+41°C27 %741 мм2.9 м/с2 %
    20:00Облачно с прояснениями+38°C33 %742 мм3.7 м/с2 %
    23:00Облачно с прояснениями+35°C43 %744 мм4.4 м/с2 %
  • 28июля
    Воскресенье
    +30°
    +41°
    Облачно с прояснениями
    ВремяПогодаТемператураВлажностьДавлениеВетер, м/сВероятность осадков
    02:00Облачно с прояснениями+33°C53 %743 мм3.2 м/с2 %
    05:00Практически безоблачно+30°C63 %744 мм2.4 м/с2 %
    08:00Небольшая облачность+32°C61 %745 мм2.2 м/с2 %
    11:00Ясно и безоблачно+36°C41 %745 мм2.9 м/с2 %
    14:00Облачно с прояснениями+40°C27 %743 мм3.2 м/с2 %
    17:00Облачно с прояснениями+40°C25 %742 мм4.2 м/с2 %
    20:00Облачно с прояснениями+37°C31 %743 мм4.9 м/с2 %
    23:00Облачно с прояснениями+34°C45 %743 мм3.4 м/с2 %
Мы используем cookies
Соглашаюсь